METAR Data
IDs: Format: Raw Decoded Include TAF

Data at: 1236 UTC 07 Oct 2022

EKOD 071150Z 21014KT 170V230 9999 SCT015 BKN018 14/12 Q1016